Time;durP1;ratioP1;P1;durP2;ratioP2;P2;SDS_P1;SDS_P2;PMS_P1;PMS_P2;Temp;Humidity;BMP_temperature;BMP_pressure;BME280_temperature;BME280_humidity;BME280_pressure;Samples;Min_cycle;Max_cycle;Signal;HPM_P1;HPM_P2
2024/03/29 00:00:34;;;;;;;4.60;1.80;;;;;;;6.99;65.55;99192.20;107716;1311;22247;-60
2024/03/29 00:02:59;;;;;;;2.70;1.60;;;;;;;6.92;66.13;99196.29;107652;1312;22243;-60
2024/03/29 00:05:25;;;;;;;1.80;1.40;;;;;;;6.88;65.86;99208.72;107654;1312;22277;-60
2024/03/29 00:07:50;;;;;;;3.00;1.60;;;;;;;6.77;65.73;99211.55;107653;1312;22319;-60
2024/03/29 00:10:15;;;;;;;2.40;1.70;;;;;;;6.66;66.94;99219.69;107694;1294;22277;-60
2024/03/29 00:12:41;;;;;;;4.80;1.50;;;;;;;6.58;66.79;99222.61;107770;1311;23407;-60
2024/03/29 00:15:07;;;;;;;2.10;1.50;;;;;;;6.53;67.10;99231.10;107722;1307;22252;-60
2024/03/29 00:17:33;;;;;;;3.70;2.10;;;;;;;6.52;67.07;99240.20;107730;1304;22115;-60
2024/03/29 00:19:58;;;;;;;6.50;2.10;;;;;;;6.49;68.43;99242.66;107604;1294;22353;-60
2024/03/29 00:22:23;;;;;;;4.90;2.70;;;;;;;6.45;68.54;99246.34;107447;1312;23138;-59
2024/03/29 00:24:49;;;;;;;2.60;1.90;;;;;;;6.43;68.07;99252.90;107645;1312;22332;-60
2024/03/29 00:27:14;;;;;;;2.20;2.00;;;;;;;6.40;67.80;99258.60;107481;1312;22479;-60
2024/03/29 00:29:39;;;;;;;3.80;2.10;;;;;;;6.41;68.00;99263.39;107618;1294;22299;-59
2024/03/29 00:32:05;;;;;;;4.40;2.10;;;;;;;6.41;68.55;99266.98;107624;1312;22263;-60
2024/03/29 00:34:31;;;;;;;5.00;2.30;;;;;;;6.38;68.99;99270.28;107627;1307;22298;-60
2024/03/29 00:36:56;;;;;;;4.70;2.50;;;;;;;6.36;69.24;99273.23;107644;1308;22550;-60
2024/03/29 00:39:22;;;;;;;2.30;1.80;;;;;;;6.36;68.28;99287.10;107642;1293;22263;-60
2024/03/29 00:41:47;;;;;;;3.10;1.80;;;;;;;6.32;70.33;99289.91;107617;1309;22410;-60
2024/03/29 00:44:13;;;;;;;2.30;1.70;;;;;;;6.32;71.80;99291.63;107652;1312;22319;-60
2024/03/29 00:46:38;;;;;;;4.30;2.40;;;;;;;6.39;70.07;99297.48;107458;1312;22251;-59
2024/03/29 00:49:04;;;;;;;3.40;1.80;;;;;;;6.41;70.83;99303.25;107601;1289;22390;-59
2024/03/29 00:51:29;;;;;;;3.40;2.10;;;;;;;6.45;69.88;99307.45;107672;1312;22335;-60
2024/03/29 00:53:54;;;;;;;4.40;1.80;;;;;;;6.46;70.22;99314.63;107613;1304;22460;-60
2024/03/29 00:56:20;;;;;;;3.90;1.90;;;;;;;6.45;71.04;99320.30;107627;1305;22262;-60
2024/03/29 00:58:46;;;;;;;4.70;2.30;;;;;;;6.45;70.78;99322.52;107611;1307;22250;-60
2024/03/29 01:01:11;;;;;;;3.20;2.00;;;;;;;6.48;70.17;99329.48;107424;1295;22242;-60
2024/03/29 01:03:36;;;;;;;2.50;1.80;;;;;;;6.50;70.63;99334.07;107600;1297;22212;-60
2024/03/29 01:06:02;;;;;;;3.40;2.10;;;;;;;6.52;70.38;99341.38;107628;1312;22217;-60
2024/03/29 01:08:28;;;;;;;5.40;2.40;;;;;;;6.52;71.93;99348.41;107656;1312;22308;-59
2024/03/29 01:10:53;;;;;;;8.10;2.40;;;;;;;6.52;70.41;99352.52;107664;1292;22410;-60
2024/03/29 01:13:19;;;;;;;3.00;2.30;;;;;;;6.48;70.55;99352.42;107653;1310;22304;-58
2024/03/29 01:15:45;;;;;;;4.80;2.30;;;;;;;6.47;70.33;99364.77;107591;1312;22338;-60
2024/03/29 01:18:10;;;;;;;3.00;2.20;;;;;;;6.51;70.33;99371.35;107453;1306;22287;-60
2024/03/29 01:20:36;;;;;;;2.80;2.10;;;;;;;6.60;71.59;99376.66;107576;1293;22359;-59
2024/03/29 01:23:01;;;;;;;6.40;2.50;;;;;;;6.67;70.56;99375.84;107576;1312;22214;-60
2024/03/29 01:25:27;;;;;;;2.70;2.00;;;;;;;6.70;71.07;99379.20;107602;1300;22262;-60
2024/03/29 01:27:52;;;;;;;2.20;1.80;;;;;;;6.74;71.18;99378.27;107617;1300;22271;-60
2024/03/29 01:30:18;;;;;;;3.40;2.20;;;;;;;6.78;70.90;99382.10;107579;1294;22729;-60
2024/03/29 01:32:44;;;;;;;2.30;2.00;;;;;;;6.83;71.72;99384.73;107598;1301;22281;-60
2024/03/29 01:35:09;;;;;;;2.80;1.80;;;;;;;6.88;70.61;99388.56;107583;1312;22291;-60
2024/03/29 01:37:35;;;;;;;4.20;2.40;;;;;;;6.94;71.24;99391.88;107554;1307;22450;-60
2024/03/29 01:40:00;;;;;;;2.20;1.60;;;;;;;6.98;70.71;99395.55;107505;1292;22686;-59
2024/03/29 01:42:25;;;;;;;3.00;1.80;;;;;;;7.03;71.65;99400.59;107572;1293;22363;-57
2024/03/29 01:44:51;;;;;;;3.10;1.70;;;;;;;7.06;71.24;99401.91;107588;1312;22251;-59
2024/03/29 01:47:18;;;;;;;3.40;1.80;;;;;;;7.12;71.63;99399.21;107591;1312;22239;-58
2024/03/29 01:49:45;;;;;;;2.40;1.60;;;;;;;7.17;71.69;99405.60;107603;1312;22240;-59
2024/03/29 01:52:12;;;;;;;3.40;1.90;;;;;;;7.25;70.92;99410.75;107614;1293;22257;-58
2024/03/29 01:54:38;;;;;;;;;;;;;;;7.28;70.96;99417.69;107623;1311;22439;-58
2024/03/29 01:57:04;;;;;;;3.40;1.90;;;;;;;7.30;70.71;99417.97;107521;1312;22261;-59
2024/03/29 01:59:31;;;;;;;2.80;1.90;;;;;;;7.32;70.92;99421.20;107605;1312;22315;-58
2024/03/29 02:01:58;;;;;;;3.10;1.90;;;;;;;7.35;71.08;99422.16;107575;1294;22260;-59
2024/03/29 02:04:24;;;;;;;2.60;1.40;;;;;;;7.39;71.44;99429.27;107588;1312;22214;-59
2024/03/29 02:06:50;;;;;;;4.40;1.70;;;;;;;7.43;70.90;99433.13;107510;1310;22322;-58
2024/03/29 02:09:15;;;;;;;2.30;1.60;;;;;;;7.46;70.62;99436.31;107612;1312;22250;-59
2024/03/29 02:11:41;;;;;;;2.40;1.90;;;;;;;7.49;70.98;99436.77;107632;1292;22294;-57
2024/03/29 02:14:06;;;;;;;1.90;1.50;;;;;;;7.53;70.74;99439.77;107526;1312;22310;-58
2024/03/29 02:16:32;;;;;;;3.50;1.90;;;;;;;7.58;70.50;99441.86;107667;1311;22242;-59
2024/03/29 02:18:57;;;;;;;1.90;1.50;;;;;;;7.61;70.48;99444.05;107641;1311;22237;-58
2024/03/29 02:21:23;;;;;;;2.80;1.20;;;;;;;7.62;69.97;99445.56;107311;1297;22273;-58
2024/03/29 02:23:53;;;;;;;5.70;1.90;;;;;;;7.60;70.14;99453.67;107588;1309;22309;-58
2024/03/29 02:26:19;;;;;;;4.30;1.60;;;;;;;7.59;70.06;99459.17;107535;1312;22462;-57
2024/03/29 02:28:44;;;;;;;4.10;1.40;;;;;;;7.57;70.11;99462.48;107574;1312;22276;-59
2024/03/29 02:31:10;;;;;;;2.40;1.40;;;;;;;7.50;69.80;99459.89;107588;1288;22289;-59
2024/03/29 02:33:35;;;;;;;2.60;1.80;;;;;;;7.46;70.09;99459.12;107614;1312;22296;-59
2024/03/29 02:36:00;;;;;;;2.70;1.40;;;;;;;7.42;70.52;99459.55;107594;1310;22255;-58
2024/03/29 02:38:26;;;;;;;2.90;1.30;;;;;;;7.36;70.56;99458.82;107429;1312;22276;-58
2024/03/29 02:40:51;;;;;;;2.50;1.30;;;;;;;7.30;70.90;99462.90;107576;1312;22278;-58
2024/03/29 02:43:17;;;;;;;3.80;1.30;;;;;;;7.23;70.71;99461.86;107585;1291;24933;-58
2024/03/29 02:45:43;;;;;;;2.10;1.20;;;;;;;7.21;71.09;99464.14;107596;1312;22128;-58
2024/03/29 02:48:08;;;;;;;1.00;0.90;;;;;;;7.15;71.52;99461.17;107445;1312;22303;-58
2024/03/29 02:50:33;;;;;;;2.80;1.20;;;;;;;7.08;71.84;99458.06;107428;1304;22527;-60
2024/03/29 02:52:59;;;;;;;2.00;1.30;;;;;;;7.01;71.65;99463.69;107385;1295;22277;-60
2024/03/29 02:55:24;;;;;;;2.90;1.20;;;;;;;6.92;71.47;99464.89;107385;1304;22352;-59
2024/03/29 02:57:49;;;;;;;1.50;0.90;;;;;;;6.88;71.90;99469.42;107381;1312;22264;-60
2024/03/29 03:00:15;;;;;;;1.10;0.80;;;;;;;6.84;72.53;99469.84;107433;1312;22289;-59
2024/03/29 03:02:41;;;;;;;1.20;0.90;;;;;;;6.79;72.56;99477.14;107373;1294;23048;-60
2024/03/29 03:05:07;;;;;;;3.20;0.90;;;;;;;6.70;73.40;99478.02;107331;1312;22384;-60
2024/03/29 03:13:02;;;;;;;0.70;0.60;;;;;;;6.48;73.68;99482.69;107495;1288;22283;-59
2024/03/29 03:15:27;;;;;;;1.30;0.90;;;;;;;6.41;73.85;99490.52;107496;1311;22190;-58
2024/03/29 03:17:53;;;;;;;2.00;0.80;;;;;;;6.34;74.55;99493.55;107479;1311;23557;-59
2024/03/29 03:20:19;;;;;;;0.70;0.60;;;;;;;6.30;73.56;99490.86;107406;1312;22820;-59
2024/03/29 03:22:44;;;;;;;1.80;1.00;;;;;;;6.27;73.16;99494.02;107476;1292;22264;-60
2024/03/29 03:25:10;;;;;;;0.70;0.70;;;;;;;6.22;73.56;99493.61;107366;1311;22268;-59
2024/03/29 03:27:35;;;;;;;2.70;0.80;;;;;;;6.18;74.75;99498.45;107349;1311;22276;-59
2024/03/29 03:30:00;;;;;;;0.90;0.90;;;;;;;6.15;74.06;99499.88;107405;1301;22308;-59
2024/03/29 03:32:26;;;;;;;1.20;1.00;;;;;;;6.10;75.17;99490.21;107387;1289;23553;-58
2024/03/29 03:34:51;;;;;;;1.90;1.10;;;;;;;6.02;74.31;99482.11;107403;1312;23149;-60
2024/03/29 03:37:17;;;;;;;1.40;1.10;;;;;;;5.95;73.84;99477.95;107416;1305;22526;-60
2024/03/29 03:39:42;;;;;;;1.40;1.30;;;;;;;5.87;72.77;99486.25;107408;1307;22350;-60
2024/03/29 03:42:07;;;;;;;3.70;1.70;;;;;;;5.76;73.28;99491.70;107411;1312;23239;-60
2024/03/29 03:44:33;;;;;;;2.00;1.90;;;;;;;5.70;73.46;99496.61;107392;1292;22322;-59
2024/03/29 03:46:58;;;;;;;4.80;1.70;;;;;;;5.63;74.34;99496.53;107423;1312;22279;-60
2024/03/29 03:49:24;;;;;;;1.90;1.30;;;;;;;5.54;74.33;99493.07;107396;1310;22221;-59
2024/03/29 03:51:49;;;;;;;3.70;1.40;;;;;;;5.49;73.55;99494.00;107465;1307;22247;-59
2024/03/29 03:54:15;;;;;;;1.70;0.90;;;;;;;5.42;73.42;99500.58;107392;1291;22419;-59
2024/03/29 03:56:40;;;;;;;1.10;0.50;;;;;;;5.38;73.42;99498.93;107421;1304;22368;-58
2024/03/29 03:59:05;;;;;;;2.00;1.20;;;;;;;5.34;73.54;99502.56;107432;1312;22397;-58
2024/03/29 04:01:31;;;;;;;1.90;1.00;;;;;;;5.31;73.78;99502.43;107575;1312;22384;-57
2024/03/29 04:03:56;;;;;;;2.20;1.10;;;;;;;5.26;74.55;99502.65;107566;1292;22441;-58
2024/03/29 04:06:22;;;;;;;1.90;0.90;;;;;;;5.20;76.29;99512.48;107605;1307;22277;-58
2024/03/29 04:08:47;;;;;;;1.60;0.90;;;;;;;5.18;73.99;99525.84;107560;1312;22260;-58
2024/03/29 04:11:13;;;;;;;1.00;0.70;;;;;;;5.18;75.86;99530.63;107598;1305;22339;-58
2024/03/29 04:13:40;;;;;;;0.80;0.60;;;;;;;5.13;75.55;99525.91;107587;1294;22698;-58
2024/03/29 04:16:06;;;;;;;2.40;0.50;;;;;;;5.07;76.19;99531.61;107420;1312;22985;-57
2024/03/29 04:18:33;;;;;;;1.10;0.70;;;;;;;5.05;77.34;99535.90;107607;1312;22221;-58
2024/03/29 04:20:59;;;;;;;1.40;0.50;;;;;;;5.03;75.61;99540.20;107584;1305;22274;-57
2024/03/29 04:23:25;;;;;;;1.00;0.70;;;;;;;5.02;76.71;99541.91;107398;1290;23007;-57
2024/03/29 04:25:58;;;;;;;1.40;0.90;;;;;;;5.00;76.39;99539.55;107619;1312;22990;-58
2024/03/29 04:28:24;;;;;;;2.30;1.00;;;;;;;5.01;75.35;99543.80;107614;1312;22337;-58
2024/03/29 04:30:53;;;;;;;1.80;1.30;;;;;;;5.03;75.83;99554.38;107567;1297;22251;-57
2024/03/29 04:33:19;;;;;;;1.60;0.90;;;;;;;5.02;76.10;99558.99;107583;1301;22322;-57
2024/03/29 04:36:00;;;;;;;1.20;0.70;;;;;;;5.00;76.41;99555.43;107541;1294;22244;-58
2024/03/29 04:38:26;;;;;;;1.00;0.80;;;;;;;5.00;77.73;99558.33;107425;1307;22305;-59
2024/03/29 04:40:53;;;;;;;1.30;0.80;;;;;;;5.01;77.57;99558.48;107326;1312;22148;-58
2024/03/29 04:43:21;;;;;;;0.80;0.70;;;;;;;5.00;77.50;99550.98;107416;1312;22223;-59
2024/03/29 04:45:46;;;;;;;1.40;0.60;;;;;;;5.00;77.93;99552.52;107398;1294;22430;-60
2024/03/29 04:48:12;;;;;;;1.10;0.80;;;;;;;5.00;77.76;99544.16;107414;1312;22249;-59
2024/03/29 04:50:38;;;;;;;0.70;0.50;;;;;;;5.00;79.16;99544.49;107409;1312;22496;-59
2024/03/29 04:53:04;;;;;;;2.20;0.80;;;;;;;4.98;78.69;99539.05;107497;1311;22201;-58
2024/03/29 04:55:30;;;;;;;0.90;0.70;;;;;;;4.96;77.69;99537.53;107281;1294;22915;-58
2024/03/29 04:57:56;;;;;;;0.70;0.70;;;;;;;4.96;77.42;99539.75;107357;1312;22257;-60
2024/03/29 05:00:21;;;;;;;3.60;0.90;;;;;;;4.98;77.97;99530.52;107253;1313;22282;-59
2024/03/29 05:02:47;;;;;;;1.10;1.00;;;;;;;5.00;79.35;99529.81;107309;1313;22237;-59
2024/03/29 05:05:12;;;;;;;1.00;0.80;;;;;;;5.02;78.88;99538.16;107281;1297;22287;-59
2024/03/29 05:07:37;;;;;;;1.40;1.00;;;;;;;5.02;77.74;99543.29;107563;1304;22360;-60
2024/03/29 05:10:06;;;;;;;2.10;0.90;;;;;;;5.07;77.31;99545.62;107616;1306;22416;-59
2024/03/29 05:12:32;;;;;;;1.90;1.10;;;;;;;5.11;77.86;99543.86;107645;1304;22267;-60
2024/03/29 05:14:57;;;;;;;1.30;1.00;;;;;;;5.16;78.19;99547.73;107843;1293;22273;-60
2024/03/29 05:17:26;;;;;;;1.30;1.20;;;;;;;5.20;78.80;99556.40;107837;1312;22438;-59
2024/03/29 05:19:52;;;;;;;1.10;1.00;;;;;;;5.26;79.79;99563.99;107635;1307;22279;-60
2024/03/29 05:22:17;;;;;;;1.30;1.20;;;;;;;5.33;79.90;99566.48;107804;1305;21952;-60
2024/03/29 05:24:43;;;;;;;1.40;1.20;;;;;;;5.40;79.39;99567.77;107607;1292;22475;-59
2024/03/29 05:27:08;;;;;;;2.80;1.60;;;;;;;5.46;79.04;99565.48;107788;1308;22275;-58
2024/03/29 05:29:33;;;;;;;2.70;1.70;;;;;;;5.52;80.32;99570.70;107763;1306;22389;-59
2024/03/29 05:31:59;;;;;;;1.80;1.30;;;;;;;5.59;79.07;99579.15;107725;1305;22376;-59
2024/03/29 05:34:24;;;;;;;2.10;1.40;;;;;;;5.70;78.03;99580.39;107753;1307;22122;-60
2024/03/29 05:36:49;;;;;;;3.80;1.50;;;;;;;5.75;78.55;99584.73;107706;1294;22284;-59
2024/03/29 05:39:15;;;;;;;2.60;1.40;;;;;;;5.82;79.45;99596.80;107685;1307;22406;-59
2024/03/29 05:41:41;;;;;;;2.70;1.40;;;;;;;5.92;78.32;99596.18;107727;1312;22259;-59
2024/03/29 05:44:06;;;;;;;3.30;1.50;;;;;;;6.04;79.38;99588.33;107478;1300;22339;-60
2024/03/29 05:46:32;;;;;;;2.80;1.80;;;;;;;6.16;78.36;99590.70;107322;1296;22265;-61
2024/03/29 05:48:57;;;;;;;2.10;1.30;;;;;;;6.28;78.05;99586.57;107608;1312;22295;-60
2024/03/29 05:51:22;;;;;;;2.40;1.40;;;;;;;6.41;77.87;99584.33;107668;1306;22350;-59
2024/03/29 05:53:48;;;;;;;2.70;1.60;;;;;;;6.54;77.24;99575.21;107432;1312;23178;-59
2024/03/29 05:56:13;;;;;;;1.80;1.50;;;;;;;6.69;76.93;99578.73;107427;1307;22265;-61
2024/03/29 05:58:39;;;;;;;2.10;1.40;;;;;;;6.85;77.29;99573.16;107759;1312;22325;-59
2024/03/29 06:01:04;;;;;;;1.80;1.40;;;;;;;6.98;76.65;99572.38;107666;1307;22272;-58
2024/03/29 06:03:30;;;;;;;2.40;1.40;;;;;;;7.13;76.34;99571.59;107496;1303;22257;-57
2024/03/29 06:05:55;;;;;;;2.40;1.40;;;;;;;7.31;76.03;99564.36;107656;1295;22375;-59
2024/03/29 06:08:23;;;;;;;2.50;1.50;;;;;;;7.48;75.42;99562.14;107501;1306;22285;-57
2024/03/29 06:10:48;;;;;;;2.40;1.40;;;;;;;7.64;75.17;99559.23;107701;1309;22448;-59
2024/03/29 06:17:22;;;;;;;4.60;1.20;;;;;;;7.80;75.03;99551.48;107565;1307;22246;-59
2024/03/29 06:18:58;;;;;;;5.80;1.20;;;;;;;8.18;73.76;99545.64;107543;1304;22398;-60
2024/03/29 06:21:24;;;;;;;3.30;1.30;;;;;;;8.35;73.73;99539.93;107605;1312;22267;-59
2024/03/29 06:23:49;;;;;;;3.40;1.70;;;;;;;8.48;73.36;99549.05;107609;1312;22271;-60
2024/03/29 06:26:14;;;;;;;1.70;1.50;;;;;;;8.56;72.55;99552.11;107557;1294;22332;-59
2024/03/29 06:28:40;;;;;;;1.90;1.50;;;;;;;8.68;72.26;99555.45;107374;1312;22352;-60
2024/03/29 06:31:05;;;;;;;2.70;2.00;;;;;;;8.85;72.73;99565.98;107600;1304;22285;-59
2024/03/29 06:33:31;;;;;;;2.00;1.30;;;;;;;8.95;71.66;99580.66;107615;1310;22329;-60
2024/03/29 06:35:56;;;;;;;1.80;1.30;;;;;;;8.96;71.28;99595.25;107378;1291;24166;-59
2024/03/29 06:38:21;;;;;;;1.80;1.40;;;;;;;8.94;70.82;99598.89;107616;1312;23089;-59
2024/03/29 06:40:47;;;;;;;3.00;1.50;;;;;;;9.00;70.81;99605.80;107626;1312;22427;-59
2024/03/29 06:43:13;;;;;;;3.80;1.30;;;;;;;9.09;70.32;99612.95;107581;1310;22335;-59
2024/03/29 06:45:42;;;;;;;1.70;1.20;;;;;;;9.28;70.63;99610.90;107617;1297;22476;-59
2024/03/29 06:48:08;;;;;;;2.30;1.80;;;;;;;9.48;69.91;99605.17;107621;1292;22335;-60
2024/03/29 06:50:34;;;;;;;3.40;1.30;;;;;;;9.64;68.83;99600.41;107507;1312;23199;-60
2024/03/29 06:53:00;;;;;;;3.70;1.50;;;;;;;9.72;68.23;99603.30;107690;1312;22424;-60
2024/03/29 06:55:25;;;;;;;3.00;1.40;;;;;;;9.75;67.28;99600.80;107718;1306;22271;-59
2024/03/29 06:57:51;;;;;;;4.30;1.70;;;;;;;9.84;67.39;99601.22;107629;1291;22256;-59
2024/03/29 07:00:17;;;;;;;2.80;2.00;;;;;;;10.02;67.27;99607.73;107574;1301;22376;-58
2024/03/29 07:02:42;;;;;;;2.30;1.50;;;;;;;10.26;67.31;99606.52;107569;1306;22455;-60
2024/03/29 07:05:11;;;;;;;2.80;1.50;;;;;;;10.43;65.75;99613.55;107544;1313;22243;-59
2024/03/29 07:07:37;;;;;;;2.20;1.30;;;;;;;10.48;64.22;99621.13;107671;1293;22300;-60
2024/03/29 07:10:02;;;;;;;3.50;1.60;;;;;;;10.62;64.13;99631.55;107684;1312;22272;-59
2024/03/29 07:12:28;;;;;;;2.00;1.80;;;;;;;10.76;64.03;99630.08;107586;1312;22990;-59
2024/03/29 07:14:53;;;;;;;2.50;1.50;;;;;;;10.91;63.79;99621.97;107640;1304;22347;-59
2024/03/29 07:17:19;;;;;;;2.70;1.50;;;;;;;11.09;63.99;99612.22;107691;1292;22264;-59
2024/03/29 07:19:44;;;;;;;2.50;1.80;;;;;;;11.24;63.74;99606.16;107543;1310;165734;-60
2024/03/29 07:22:10;;;;;;;2.60;1.80;;;;;;;11.51;64.29;99608.30;107670;1300;22317;-59
2024/03/29 07:24:35;;;;;;;4.20;1.70;;;;;;;11.82;61.54;99615.47;107662;1304;22375;-60
2024/03/29 07:27:00;;;;;;;2.80;1.40;;;;;;;11.85;62.31;99624.86;107486;1291;22472;-59
2024/03/29 07:29:26;;;;;;;2.10;1.80;;;;;;;11.99;61.71;99631.56;107255;1307;22278;-60
2024/03/29 07:31:52;;;;;;;5.90;2.20;;;;;;;12.05;60.93;99641.17;107372;1305;22294;-61
2024/03/29 07:34:17;;;;;;;2.00;1.60;;;;;;;12.16;60.69;99637.14;107348;1306;22333;-61
2024/03/29 07:36:43;;;;;;;2.40;1.70;;;;;;;12.09;59.88;99632.41;107276;1304;22234;-60
2024/03/29 07:39:08;;;;;;;4.80;1.90;;;;;;;12.29;59.36;99636.84;107232;1298;22382;-60
2024/03/29 07:41:33;;;;;;;3.00;1.50;;;;;;;12.68;60.02;99631.80;107216;1304;22343;-60
2024/03/29 07:44:00;;;;;;;2.90;2.00;;;;;;;13.01;58.10;99636.11;107144;1307;22296;-60
2024/03/29 07:46:32;;;;;;;2.60;1.60;;;;;;;13.03;58.29;99633.98;107300;1307;23819;-60
2024/03/29 07:48:57;;;;;;;3.80;1.50;;;;;;;13.09;58.03;99631.98;107335;1292;22248;-60
2024/03/29 07:51:23;;;;;;;2.40;1.60;;;;;;;13.21;56.79;99633.22;107286;1304;22370;-60
2024/03/29 07:53:48;;;;;;;3.20;1.70;;;;;;;13.18;56.42;99627.65;107280;1305;22890;-60
2024/03/29 07:56:14;;;;;;;3.40;1.90;;;;;;;13.28;56.74;99627.58;107268;1306;22307;-60
2024/03/29 07:58:39;;;;;;;2.30;1.80;;;;;;;13.56;56.82;99633.09;107246;1290;22358;-60
2024/03/29 08:01:05;;;;;;;2.40;2.00;;;;;;;13.92;55.22;99642.20;107292;1305;22382;-60
2024/03/29 08:03:34;;;;;;;2.70;1.50;;;;;;;14.28;53.48;99649.20;107142;1304;23797;-60
2024/03/29 08:06:01;;;;;;;3.40;1.70;;;;;;;14.46;52.75;99650.09;107088;1306;22331;-60
2024/03/29 08:08:27;;;;;;;2.50;1.60;;;;;;;14.85;53.58;99646.48;107323;1291;22308;-60
2024/03/29 08:10:53;;;;;;;5.30;3.10;;;;;;;15.11;52.77;99648.09;107333;1307;22285;-60
2024/03/29 08:13:21;;;;;;;3.20;2.20;;;;;;;15.46;52.57;99646.85;107292;1305;22390;-60
2024/03/29 08:15:47;;;;;;;4.30;1.90;;;;;;;15.38;50.40;99641.01;107287;1310;22292;-60
2024/03/29 08:18:12;;;;;;;3.60;2.30;;;;;;;15.60;51.72;99639.68;107304;1290;21886;-61
2024/03/29 08:20:38;;;;;;;3.10;2.20;;;;;;;15.78;49.78;99637.02;107277;1304;22362;-61
2024/03/29 08:23:03;;;;;;;3.50;2.30;;;;;;;16.23;50.70;99638.35;107304;1307;22313;-60
2024/03/29 08:25:29;;;;;;;3.10;1.90;;;;;;;16.18;49.91;99639.17;107279;1311;22302;-60
2024/03/29 08:28:01;;;;;;;8.90;2.20;;;;;;;16.31;47.78;99644.38;107301;1290;22411;-60
2024/03/29 08:30:31;;;;;;;2.00;1.70;;;;;;;16.40;48.30;99657.95;107290;1294;23623;-60
2024/03/29 08:32:57;;;;;;;3.40;1.60;;;;;;;16.54;47.70;99660.66;107240;1305;22422;-60
2024/03/29 08:35:22;;;;;;;3.80;2.40;;;;;;;16.66;48.56;99670.41;107303;1310;22271;-60
2024/03/29 08:37:50;;;;;;;5.00;1.80;;;;;;;16.80;47.84;99676.23;107358;1304;22722;-61
2024/03/29 08:40:15;;;;;;;2.10;1.60;;;;;;;16.80;47.37;99680.05;107560;1294;22255;-61
2024/03/29 08:42:41;;;;;;;3.90;1.90;;;;;;;16.63;46.63;99686.64;107556;1306;22267;-61
2024/03/29 08:45:08;;;;;;;4.60;2.10;;;;;;;16.47;46.70;99693.23;107517;1305;22357;-59
2024/03/29 08:47:33;;;;;;;;;;;;;;;16.30;46.45;99688.09;107429;1312;22550;-60
2024/03/29 08:49:59;;;;;;;2.10;1.70;;;;;;;16.34;46.91;99686.46;107598;1294;22238;-59
2024/03/29 08:52:24;;;;;;;4.50;1.80;;;;;;;16.13;45.82;99688.85;107586;1307;22336;-60
2024/03/29 08:54:50;;;;;;;2.70;1.90;;;;;;;16.03;46.50;99690.08;107523;1304;22355;-60
2024/03/29 08:57:15;;;;;;;3.90;1.60;;;;;;;16.22;47.53;99683.95;107455;1304;22284;-60
2024/03/29 08:59:41;;;;;;;6.60;2.30;;;;;;;16.29;46.39;99683.78;107495;1294;22322;-60
2024/03/29 09:02:07;;;;;;;3.80;1.70;;;;;;;16.29;46.49;99678.91;107557;1305;22440;-59
2024/03/29 09:04:36;;;;;;;2.90;1.80;;;;;;;16.21;46.45;99684.04;107562;1304;22289;-60
2024/03/29 09:07:05;;;;;;;3.40;1.90;;;;;;;16.08;46.23;99686.32;107417;1306;23097;-60
2024/03/29 09:09:34;;;;;;;3.50;1.70;;;;;;;15.93;46.60;99685.91;107545;1294;22661;-59
2024/03/29 09:11:59;;;;;;;3.70;1.90;;;;;;;15.99;46.86;99692.53;107543;1305;22366;-60
2024/03/29 09:14:25;;;;;;;3.00;1.20;;;;;;;15.94;46.35;99697.86;107409;1305;22362;-60
2024/03/29 09:16:51;;;;;;;6.40;1.60;;;;;;;15.68;45.97;99702.17;107603;1305;22378;-60
2024/03/29 09:19:17;;;;;;;3.40;1.50;;;;;;;15.68;47.14;99699.41;107545;1290;22412;-60
2024/03/29 09:21:42;;;;;;;3.10;1.70;;;;;;;15.56;46.84;99706.44;107642;1305;22347;-60
2024/03/29 09:24:07;;;;;;;2.10;1.30;;;;;;;15.62;46.85;99713.23;107667;1310;22300;-59
2024/03/29 09:26:33;;;;;;;3.30;1.90;;;;;;;15.90;46.32;99709.73;107628;1308;22247;-60
2024/03/29 09:28:59;;;;;;;2.40;1.60;;;;;;;15.99;45.72;99710.47;107449;1312;22317;-60
2024/03/29 09:31:24;;;;;;;3.60;1.40;;;;;;;16.11;45.66;99706.51;107409;1297;22295;-59
2024/03/29 09:33:53;;;;;;;2.90;1.40;;;;;;;16.35;45.04;99703.45;107503;1310;22763;-59
2024/03/29 09:36:25;;;;;;;3.20;1.70;;;;;;;16.75;44.44;99703.86;107470;1307;22814;-60
2024/03/29 09:38:51;;;;;;;4.30;1.60;;;;;;;17.35;43.82;99709.95;107530;1312;22475;-60
2024/03/29 09:41:18;;;;;;;2.30;1.30;;;;;;;17.36;43.15;99707.46;107582;1293;22284;-60
2024/03/29 09:43:45;;;;;;;2.60;1.40;;;;;;;17.64;42.38;99703.76;107576;1305;22326;-60
2024/03/29 09:46:15;;;;;;;3.50;1.30;;;;;;;17.93;42.57;99703.70;107406;1305;22354;-60
2024/03/29 09:48:42;;;;;;;3.40;1.20;;;;;;;17.94;41.32;99715.87;107497;1305;22383;-60
2024/03/29 09:51:07;;;;;;;;;;;;;;;17.91;40.76;99720.77;107699;1294;23205;-60
2024/03/29 09:53:37;;;;;;;2.40;1.50;;;;;;;18.54;41.51;99705.45;107754;1312;22279;-60
2024/03/29 09:56:04;;;;;;;3.60;1.30;;;;;;;19.16;39.22;99698.69;107675;1307;22361;-59
2024/03/29 09:58:30;;;;;;;3.40;1.40;;;;;;;19.63;38.42;99694.05;107746;1306;22409;-59
2024/03/29 10:00:55;;;;;;;4.50;1.30;;;;;;;20.05;37.68;99686.83;107747;1293;23511;-61
2024/03/29 10:03:29;;;;;;;2.90;1.60;;;;;;;20.83;38.29;99673.30;107569;1311;22358;-60
2024/03/29 10:05:58;;;;;;;2.50;1.30;;;;;;;21.55;36.56;99670.71;107679;1304;22249;-60
2024/03/29 10:08:26;;;;;;;2.90;1.30;;;;;;;21.89;35.75;99676.99;107550;1312;22393;-61
2024/03/29 10:10:54;;;;;;;3.90;1.40;;;;;;;22.27;35.54;99682.44;107592;1297;22461;-60
2024/03/29 10:13:19;;;;;;;2.90;1.50;;;;;;;22.15;33.20;99686.33;107680;1304;22176;-59
2024/03/29 10:15:49;;;;;;;3.50;1.40;;;;;;;22.04;34.45;99695.34;107749;1306;22364;-60
2024/03/29 10:18:14;;;;;;;2.70;1.30;;;;;;;22.83;32.73;99699.55;107733;1304;22284;-61
2024/03/29 10:20:40;;;;;;;3.40;1.80;;;;;;;23.19;32.55;99700.09;107486;1291;22426;-60
2024/03/29 10:23:07;;;;;;;3.40;1.60;;;;;;;23.33;31.76;99696.41;107550;1305;22377;-61
2024/03/29 10:25:34;;;;;;;3.20;1.30;;;;;;;23.18;31.72;99697.66;107222;1307;22180;-59
2024/03/29 10:28:01;;;;;;;;;;;;;;;22.35;31.37;99695.62;107534;1305;22462;-59
2024/03/29 10:30:27;;;;;;;4.80;1.30;;;;;;;21.94;31.75;99690.12;107507;1299;22898;-59
2024/03/29 10:32:53;;;;;;;3.10;1.80;;;;;;;21.12;31.85;99688.99;107498;1311;22985;-60
2024/03/29 10:35:19;;;;;;;4.40;1.60;;;;;;;21.23;32.54;99680.89;107449;1309;22237;-61
2024/03/29 10:37:45;;;;;;;2.70;1.30;;;;;;;21.22;31.97;99681.59;107326;1306;22375;-59
2024/03/29 10:40:15;;;;;;;3.20;1.60;;;;;;;21.33;31.33;99682.12;107553;1306;22424;-59
2024/03/29 10:42:42;;;;;;;2.40;0.90;;;;;;;21.04;31.32;99677.56;107393;1305;23288;-58
2024/03/29 10:45:08;;;;;;;4.90;1.80;;;;;;;21.26;31.34;99674.52;107332;1312;22448;-60
2024/03/29 10:47:34;;;;;;;1.70;1.00;;;;;;;21.59;31.60;99671.25;107575;1311;21817;-59
2024/03/29 10:50:00;;;;;;;3.90;1.60;;;;;;;21.70;32.13;99668.87;107509;1307;22358;-59
2024/03/29 10:52:26;;;;;;;6.90;1.10;;;;;;;21.60;31.94;99668.95;107445;1293;22794;-61
2024/03/29 10:54:54;;;;;;;0.90;0.80;;;;;;;21.19;30.65;99676.25;107461;1308;22365;-59
2024/03/29 10:57:24;;;;;;;5.10;1.00;;;;;;;20.60;31.60;99676.06;107519;1307;22368;-60
2024/03/29 10:59:56;;;;;;;2.20;0.90;;;;;;;20.24;31.59;99678.47;107373;1307;22332;-60
2024/03/29 11:02:37;;;;;;;3.20;0.90;;;;;;;20.27;31.70;99680.70;107510;1293;22207;-60
2024/03/29 11:05:09;;;;;;;1.70;0.90;;;;;;;20.48;31.79;99685.14;107646;1310;22949;-60
2024/03/29 11:07:43;;;;;;;1.80;1.00;;;;;;;20.45;31.77;99692.54;107553;1309;22380;-61
2024/03/29 11:10:25;;;;;;;2.40;0.90;;;;;;;20.25;31.57;99685.05;107589;1307;23066;-61
2024/03/29 11:13:03;;;;;;;2.50;1.20;;;;;;;20.35;32.15;99680.30;107566;1302;22277;-60
2024/03/29 11:15:31;;;;;;;2.30;1.10;;;;;;;20.82;31.56;99676.86;107631;1312;22372;-60
2024/03/29 11:17:57;;;;;;;3.60;1.20;;;;;;;21.24;31.51;99672.52;107546;1305;22269;-59
2024/03/29 11:20:33;;;;;;;2.80;1.00;;;;;;;21.52;30.73;99682.33;107588;1310;22438;-59
2024/03/29 11:23:05;;;;;;;2.30;1.20;;;;;;;21.49;31.02;99685.00;107518;1304;22263;-59
2024/03/29 11:25:38;;;;;;;2.60;1.00;;;;;;;21.32;31.12;99685.77;107340;1308;23184;-59
2024/03/29 11:28:13;;;;;;;3.50;1.20;;;;;;;21.10;30.54;99685.52;107277;1307;22968;-57
2024/03/29 11:30:49;;;;;;;3.80;1.10;;;;;;;21.16;30.74;99679.81;107346;1312;22249;-59
2024/03/29 11:33:36;;;;;;;2.10;0.90;;;;;;;21.53;30.13;99669.82;107348;1295;23527;-59
2024/03/29 11:36:12;;;;;;;2.40;1.30;;;;;;;22.19;29.36;99667.06;107247;1311;22918;-60